Time;durP1;ratioP1;P1;durP2;ratioP2;P2;SDS_P1;SDS_P2;PMS_P1;PMS_P2;Temp;Humidity;BMP_temperature;BMP_pressure;BME280_temperature;BME280_humidity;BME280_pressure;Samples;Min_cycle;Max_cycle;Signal;HPM_P1;HPM_P2
2023/01/28 00:01:38;;;;;;;16.00;8.82;;;;;;;1.51;100.00;97063.75;5010989;28;20022;-85
2023/01/28 00:04:04;;;;;;;15.57;7.38;;;;;;;1.45;100.00;97069.22;5014284;28;20029;-85
2023/01/28 00:06:29;;;;;;;14.23;8.13;;;;;;;1.41;100.00;97076.41;5013115;28;20109;-85
2023/01/28 00:08:55;;;;;;;15.80;8.63;;;;;;;1.47;100.00;97086.72;5010933;28;20026;-85
2023/01/28 00:11:21;;;;;;;19.73;9.60;;;;;;;1.53;100.00;97094.44;5014122;28;20022;-85
2023/01/28 00:13:51;;;;;;;21.40;9.75;;;;;;;1.46;100.00;97081.50;4997562;28;20029;-85
2023/01/28 00:16:17;;;;;;;15.20;8.38;;;;;;;1.47;100.00;97083.22;5013112;28;20033;-85
2023/01/28 00:18:43;;;;;;;14.23;8.23;;;;;;;1.45;100.00;97093.81;5013741;28;20022;-85
2023/01/28 00:21:13;;;;;;;15.35;8.00;;;;;;;1.46;100.00;97094.66;5013940;28;20021;-85
2023/01/28 00:23:39;;;;;;;15.13;7.47;;;;;;;1.47;100.00;97105.19;5013705;28;20132;-85
2023/01/28 00:26:09;;;;;;;13.73;7.35;;;;;;;1.47;100.00;97102.53;4997303;28;20029;-85
2023/01/28 00:28:35;;;;;;;13.27;7.13;;;;;;;1.48;100.00;97098.97;4997398;28;20109;-85
2023/01/28 00:31:08;;;;;;;16.70;8.00;;;;;;;1.57;100.00;97111.84;5013019;28;20112;-83
2023/01/28 00:33:37;;;;;;;12.80;6.38;;;;;;;1.55;100.00;97111.03;4997334;28;20025;-84
2023/01/28 00:36:05;;;;;;;12.73;6.03;;;;;;;1.50;100.00;97107.72;5013389;28;20496;-84
2023/01/28 00:38:31;;;;;;;13.70;7.18;;;;;;;1.53;100.00;97120.78;4997256;28;20045;-84
2023/01/28 00:41:06;;;;;;;15.00;6.55;;;;;;;1.45;100.00;97125.41;5013824;28;20456;-86
2023/01/28 00:43:32;;;;;;;8.45;4.97;;;;;;;1.39;100.00;97120.34;4996840;28;20112;-86
2023/01/28 00:45:57;;;;;;;9.90;5.72;;;;;;;1.38;100.00;97117.78;4994066;28;20065;-86
2023/01/28 00:48:23;;;;;;;9.88;5.60;;;;;;;1.42;100.00;97130.78;5012601;28;20472;-86
2023/01/28 00:50:48;;;;;;;10.52;5.80;;;;;;;1.44;100.00;97147.44;4997127;28;20040;-85
2023/01/28 00:53:14;;;;;;;8.15;4.80;;;;;;;1.45;100.00;97129.81;5030692;28;20413;-85
2023/01/28 00:55:39;;;;;;;6.93;3.88;;;;;;;1.46;100.00;97148.22;5011990;28;20501;-85
2023/01/28 00:58:05;;;;;;;7.22;4.18;;;;;;;1.38;100.00;97139.72;5013720;28;20502;-85
2023/01/28 01:00:30;;;;;;;6.85;4.43;;;;;;;1.47;100.00;97139.44;4996930;28;20025;-85
2023/01/28 01:02:56;;;;;;;14.50;5.93;;;;;;;1.44;100.00;97136.03;5013693;28;20029;-85
2023/01/28 01:05:21;;;;;;;10.23;5.63;;;;;;;1.53;100.00;97144.50;5031267;28;20078;-85
2023/01/28 01:07:47;;;;;;;8.98;4.80;;;;;;;1.35;100.00;97137.19;4997222;28;20048;-85
2023/01/28 01:10:15;;;;;;;9.80;4.45;;;;;;;1.39;100.00;97149.34;4996654;28;20033;-85
2023/01/28 01:12:41;;;;;;;7.85;4.13;;;;;;;1.33;100.00;97136.34;4996837;28;20501;-84
2023/01/28 01:15:09;;;;;;;8.75;4.80;;;;;;;1.29;100.00;97141.78;5013580;28;20026;-85
2023/01/28 01:17:40;;;;;;;8.63;4.88;;;;;;;1.30;100.00;97144.38;5013325;28;20104;-85
2023/01/28 01:20:08;;;;;;;8.73;5.13;;;;;;;1.42;100.00;97159.78;5013143;28;20026;-85
2023/01/28 01:22:37;;;;;;;8.60;4.43;;;;;;;1.34;100.00;97151.25;4996146;28;20164;-85
2023/01/28 01:25:04;;;;;;;7.22;4.22;;;;;;;1.35;100.00;97149.50;4993549;28;20053;-85
2023/01/28 01:27:30;;;;;;;11.50;5.78;;;;;;;1.40;100.00;97148.44;5013802;28;20025;-85
2023/01/28 01:29:55;;;;;;;11.60;6.22;;;;;;;1.42;100.00;97154.50;5000672;28;20108;-85
2023/01/28 01:32:21;;;;;;;11.48;5.57;;;;;;;1.47;100.00;97149.97;5014710;28;20064;-85
2023/01/28 01:34:47;;;;;;;7.35;4.40;;;;;;;1.38;100.00;97147.63;5016837;28;20025;-85
2023/01/28 01:37:13;;;;;;;7.43;4.72;;;;;;;1.33;100.00;97152.16;5013691;28;20033;-85
2023/01/28 01:39:39;;;;;;;8.23;4.55;;;;;;;1.44;100.00;97165.88;5016358;28;20049;-85
2023/01/28 01:42:04;;;;;;;8.82;5.53;;;;;;;1.42;100.00;97158.91;5017068;28;20072;-85
2023/01/28 01:44:56;;;;;;;9.98;5.93;;;;;;;1.42;100.00;97166.81;5000425;28;20083;-85
2023/01/28 01:47:28;;;;;;;9.23;4.43;;;;;;;1.45;100.00;97171.97;5010855;28;20413;-83
2023/01/28 01:49:54;;;;;;;10.93;5.15;;;;;;;1.45;100.00;97166.72;5034199;28;20335;-85
2023/01/28 01:52:27;;;;;;;6.53;4.40;;;;;;;1.45;100.00;97164.94;4999595;28;20104;-85
2023/01/28 01:54:56;;;;;;;7.85;4.78;;;;;;;1.47;100.00;97163.13;5002781;28;20394;-86
2023/01/28 01:57:26;;;;;;;7.88;4.68;;;;;;;1.47;100.00;97162.28;5000254;28;20503;-86
2023/01/28 01:59:53;;;;;;;8.52;4.47;;;;;;;1.48;100.00;97164.84;4999961;28;20114;-85
2023/01/28 02:02:18;;;;;;;7.70;4.00;;;;;;;1.28;100.00;97153.22;5016483;28;20029;-85
2023/01/28 02:04:44;;;;;;;6.25;3.70;;;;;;;1.24;100.00;97157.72;4998261;28;20113;-86
2023/01/28 02:07:12;;;;;;;7.97;5.00;;;;;;;1.38;100.00;97176.59;5004925;28;20057;-86
2023/01/28 02:09:40;;;;;;;8.35;4.78;;;;;;;1.36;100.00;97177.53;4981784;28;20024;-85
2023/01/28 02:12:22;;;;;;;7.00;4.60;;;;;;;1.38;100.00;97181.00;4980666;28;20048;-85
2023/01/28 02:14:55;;;;;;;7.28;4.63;;;;;;;1.43;100.00;97186.97;4988488;28;20453;-85
2023/01/28 02:17:21;;;;;;;6.28;3.95;;;;;;;1.50;100.00;97189.38;5002993;28;20025;-85
2023/01/28 02:19:57;;;;;;;6.55;3.70;;;;;;;1.46;100.00;97178.97;4987770;28;20033;-86
2023/01/28 02:22:41;;;;;;;8.77;4.82;;;;;;;1.44;100.00;97179.06;4980119;28;20065;-84
2023/01/28 02:25:31;;;;;;;7.97;4.68;;;;;;;1.47;100.00;97184.22;5004242;28;20049;-86
2023/01/28 02:28:18;;;;;;;6.63;4.00;;;;;;;1.33;100.00;97183.78;5004142;28;20036;-85
2023/01/28 02:31:15;;;;;;;7.82;4.43;;;;;;;1.35;100.00;97187.25;5033252;28;20032;-85
2023/01/28 02:33:56;;;;;;;10.07;5.45;;;;;;;1.39;100.00;97190.63;5033273;28;20095;-85
2023/01/28 02:36:48;;;;;;;6.28;3.70;;;;;;;1.44;100.00;97194.00;5010952;28;20032;-84
2023/01/28 02:39:18;;;;;;;8.07;4.07;;;;;;;1.44;100.00;97197.50;4980663;28;20498;-85
2023/01/28 02:42:12;;;;;;;7.30;4.55;;;;;;;1.39;100.00;97194.13;4996206;28;20044;-81
2023/01/28 02:44:38;;;;;;;7.03;4.43;;;;;;;1.44;100.00;97192.22;4993036;28;20034;-86
2023/01/28 02:49:58;;;;;;;6.03;3.88;;;;;;;1.42;100.00;97188.75;5017459;28;20047;-86
2023/01/28 02:55:44;;;;;;;6.82;4.35;;;;;;;1.49;100.00;97199.97;5026695;28;20408;-85
2023/01/28 02:58:14;;;;;;;;;;;;;;;1.40;100.00;97197.63;4983399;28;20034;-85
2023/01/28 03:00:48;;;;;;;7.68;4.38;;;;;;;1.20;100.00;97190.31;5015457;28;19916;-85
2023/01/28 03:03:34;;;;;;;6.43;3.70;;;;;;;1.28;100.00;97200.63;4990962;28;20049;-85
2023/01/28 03:06:07;;;;;;;7.63;4.60;;;;;;;1.24;100.00;97199.88;5004576;28;20557;-85
2023/01/28 03:37:59;;;;;;;9.65;5.15;;;;;;;1.35;100.00;97210.09;5000048;28;20044;-86
2023/01/28 03:40:25;;;;;;;7.28;5.18;;;;;;;1.21;100.00;97197.31;4991776;28;20033;-86
2023/01/28 03:42:52;;;;;;;11.15;6.05;;;;;;;1.17;100.00;97216.75;5015046;28;20033;-87
2023/01/28 03:45:20;;;;;;;13.35;7.88;;;;;;;1.08;100.00;97210.00;5003412;28;20029;-86
2023/01/28 03:47:45;;;;;;;18.30;9.38;;;;;;;1.14;100.00;97224.75;4979216;28;20036;-86
2023/01/28 03:50:11;;;;;;;17.90;9.07;;;;;;;1.13;100.00;97228.31;4995446;28;20493;-88
2023/01/28 03:52:47;;;;;;;20.80;8.05;;;;;;;1.09;100.00;97231.94;4984460;28;20073;-86
2023/01/28 03:55:13;;;;;;;12.32;6.97;;;;;;;1.06;100.00;97232.91;5014286;28;20179;-87
2023/01/28 03:57:43;;;;;;;13.70;7.20;;;;;;;1.09;100.00;97243.34;4998388;28;20056;-87
2023/01/28 04:00:10;;;;;;;13.90;7.63;;;;;;;0.90;100.00;97209.69;5013008;28;20034;-88
2023/01/28 04:02:40;;;;;;;18.13;8.23;;;;;;;1.01;100.00;97229.56;4990435;28;20025;-85
2023/01/28 04:05:11;;;;;;;20.67;7.70;;;;;;;1.20;100.00;97240.38;4996695;28;20029;-88
2023/01/28 04:07:37;;;;;;;19.13;8.25;;;;;;;1.29;100.00;97250.66;4995578;28;20416;-86
2023/01/28 04:10:09;;;;;;;17.00;7.93;;;;;;;1.19;100.00;97225.50;5012543;28;20021;-86
2023/01/28 04:12:36;;;;;;;10.40;6.20;;;;;;;1.30;100.00;97235.69;4992779;28;20049;-87
2023/01/28 04:15:14;;;;;;;13.43;7.25;;;;;;;1.36;100.00;97246.91;5012467;28;20037;-86
2023/01/28 04:17:49;;;;;;;13.32;7.13;;;;;;;1.44;100.00;97247.56;4999625;28;20029;-86
2023/01/28 04:20:17;;;;;;;12.10;6.85;;;;;;;1.41;100.00;97234.47;5014936;28;20068;-85
2023/01/28 04:22:43;;;;;;;21.52;10.45;;;;;;;1.39;100.00;97245.94;5014984;28;20513;-85
2023/01/28 04:25:09;;;;;;;21.65;10.57;;;;;;;1.45;100.00;97246.63;5011905;28;20030;-84
2023/01/28 04:27:34;;;;;;;18.90;7.72;;;;;;;1.40;100.00;97224.84;5013741;28;20025;-85
2023/01/28 04:30:00;;;;;;;17.05;9.52;;;;;;;1.54;100.00;97241.06;4997539;28;20029;-86
2023/01/28 04:32:25;;;;;;;17.85;9.73;;;;;;;1.60;100.00;97242.63;5013119;28;20029;-86
2023/01/28 04:34:51;;;;;;;18.60;9.52;;;;;;;1.63;100.00;97234.66;5014468;28;20033;-86
2023/01/28 04:37:17;;;;;;;19.92;10.43;;;;;;;1.71;100.00;97245.81;5014132;28;20036;-86
2023/01/28 04:39:42;;;;;;;28.02;13.18;;;;;;;1.67;100.00;97235.41;4994561;28;20096;-86
2023/01/28 04:42:08;;;;;;;23.67;12.82;;;;;;;1.59;100.00;97228.63;5014187;28;20029;-86
2023/01/28 04:44:33;;;;;;;28.60;14.13;;;;;;;1.62;100.00;97227.66;5013889;28;20187;-87
2023/01/28 04:46:59;;;;;;;32.15;15.30;;;;;;;1.68;100.00;97242.41;5012047;28;20391;-86
2023/01/28 04:49:24;;;;;;;31.88;14.70;;;;;;;1.62;100.00;97244.34;5015508;28;20481;-86
2023/01/28 04:51:50;;;;;;;32.22;13.70;;;;;;;1.58;100.00;97245.34;5032622;28;20072;-86
2023/01/28 04:54:15;;;;;;;30.65;14.90;;;;;;;1.66;100.00;97258.28;4986459;28;20074;-87
2023/01/28 04:56:41;;;;;;;39.50;19.75;;;;;;;1.65;100.00;97251.28;5028553;28;20052;-86
2023/01/28 04:59:07;;;;;;;38.38;18.27;;;;;;;1.67;100.00;97259.13;4997888;28;20037;-87
2023/01/28 05:01:32;;;;;;;34.28;16.95;;;;;;;1.72;100.00;97263.38;4983017;28;20028;-86
2023/01/28 05:03:58;;;;;;;29.33;14.25;;;;;;;1.63;100.00;97267.13;4994755;28;20033;-86
2023/01/28 05:06:24;;;;;;;26.20;12.90;;;;;;;1.46;100.00;97265.94;5011812;28;20499;-86
2023/01/28 05:08:49;;;;;;;28.08;14.68;;;;;;;1.39;100.00;97259.97;5013585;28;20530;-86
2023/01/28 05:11:15;;;;;;;28.05;14.30;;;;;;;1.47;100.00;97276.44;5023401;28;20018;-87
2023/01/28 05:13:40;;;;;;;23.10;11.70;;;;;;;1.50;100.00;97286.88;5014941;28;20052;-86
2023/01/28 05:16:07;;;;;;;23.88;12.80;;;;;;;1.57;100.00;97296.31;5003559;28;20060;-85
2023/01/28 05:18:32;;;;;;;24.25;12.80;;;;;;;1.52;100.00;97295.59;4993538;28;20030;-87
2023/01/28 05:20:58;;;;;;;23.02;12.13;;;;;;;1.50;100.00;97292.16;5002729;28;20026;-86
2023/01/28 05:23:23;;;;;;;24.38;12.65;;;;;;;1.61;100.00;97307.63;4994242;28;20049;-86
2023/01/28 05:25:49;;;;;;;25.65;12.23;;;;;;;1.57;100.00;97301.56;5014146;28;20026;-87
2023/01/28 05:28:15;;;;;;;31.08;15.30;;;;;;;1.56;100.00;97299.88;4991204;28;20025;-83
2023/01/28 05:30:40;;;;;;;31.80;13.32;;;;;;;1.46;100.00;97287.88;5004509;28;20091;-84
2023/01/28 05:33:06;;;;;;;32.58;16.20;;;;;;;1.42;100.00;97290.63;4993484;28;20045;-85
2023/01/28 05:35:32;;;;;;;36.83;17.23;;;;;;;1.51;100.00;97316.72;5003183;28;20061;-84
2023/01/28 05:37:57;;;;;;;37.22;16.58;;;;;;;1.53;100.00;97313.13;4990475;28;20029;-86
2023/01/28 05:40:23;;;;;;;35.38;17.38;;;;;;;1.43;100.00;97316.09;4995483;28;20108;-86
2023/01/28 05:43:09;;;;;;;26.33;13.57;;;;;;;1.32;100.00;97318.19;5017584;28;20044;-89
2023/01/28 05:45:34;;;;;;;28.88;12.63;;;;;;;1.38;100.00;97321.50;5034825;28;20470;-87
2023/01/28 05:48:06;;;;;;;19.55;9.50;;;;;;;1.37;100.00;97338.22;5014993;28;20025;-87
2023/01/28 05:50:32;;;;;;;16.35;7.85;;;;;;;1.36;100.00;97343.50;4997527;28;20061;-86
2023/01/28 05:52:57;;;;;;;20.45;9.57;;;;;;;1.32;100.00;97339.25;4992214;28;20049;-88
2023/01/28 05:55:23;;;;;;;18.65;9.15;;;;;;;1.36;100.00;97347.00;4996721;28;20021;-87
2023/01/28 05:57:49;;;;;;;16.70;8.68;;;;;;;1.43;100.00;97347.69;4980859;28;20391;-88
2023/01/28 06:00:15;;;;;;;19.25;10.02;;;;;;;1.55;100.00;97356.13;4996951;28;20135;-87
2023/01/28 06:02:42;;;;;;;24.65;11.90;;;;;;;1.53;100.00;97347.41;4980847;28;20552;-88
2023/01/28 06:05:08;;;;;;;17.80;8.57;;;;;;;1.44;100.00;97339.78;4996937;28;20489;-86
2023/01/28 06:07:33;;;;;;;27.85;13.75;;;;;;;1.51;100.00;97350.97;4980942;28;20026;-88
2023/01/28 06:09:59;;;;;;;26.95;14.35;;;;;;;1.55;100.00;97342.06;4997207;28;20037;-87
2023/01/28 06:23:01;;;;;;;19.27;9.57;;;;;;;1.58;100.00;97363.06;5012112;28;20057;-86
2023/01/28 06:25:26;;;;;;;17.63;10.00;;;;;;;1.48;100.00;97357.19;4994145;28;20026;-85
2023/01/28 06:27:52;;;;;;;23.58;12.00;;;;;;;1.52;100.00;97358.84;4991118;28;20029;-86
2023/01/28 06:30:17;;;;;;;15.70;8.63;;;;;;;1.64;100.00;97383.97;4992482;28;20030;-86
2023/01/28 06:32:43;;;;;;;20.60;11.13;;;;;;;1.72;100.00;97376.72;4991405;28;20069;-86
2023/01/28 06:35:09;;;;;;;25.63;13.55;;;;;;;1.78;100.00;97392.34;4989211;28;20028;-84
2023/01/28 07:07:52;;;;;;;39.28;20.50;;;;;;;1.73;100.00;97403.91;3977158;28;20068;-75
2023/01/28 07:50:39;;;;;;;13.27;7.60;;;;;;;2.11;100.00;97461.66;5027255;28;20115;-87
2023/01/28 15:13:58;;;;;;;24.33;11.80;;;;;;;2.52;100.00;97428.72;5023861;28;20051;-75
2023/01/28 15:17:19;;;;;;;22.10;11.82;;;;;;;2.45;100.00;97438.59;5018543;28;20037;-75
2023/01/28 15:19:45;;;;;;;18.58;10.18;;;;;;;2.39;100.00;97446.72;5029030;28;20049;-77
2023/01/28 15:22:14;;;;;;;18.63;9.52;;;;;;;2.31;100.00;97440.78;5035950;28;20033;-83
2023/01/28 15:24:42;;;;;;;18.13;9.82;;;;;;;2.25;100.00;97451.53;5017142;28;20401;-83
2023/01/28 15:27:15;;;;;;;17.13;9.68;;;;;;;2.23;100.00;97458.66;5016595;28;20041;-81
2023/01/28 15:29:50;;;;;;;20.98;10.48;;;;;;;2.19;100.00;97459.66;5018258;28;20107;-81
2023/01/28 15:32:25;;;;;;;22.27;11.45;;;;;;;2.18;100.00;97471.97;5033592;28;20033;-82
2023/01/28 15:34:50;;;;;;;22.58;12.20;;;;;;;2.24;100.00;97473.59;5052422;28;20028;-79
2023/01/28 15:37:17;;;;;;;20.15;9.98;;;;;;;2.12;100.00;97476.59;5054021;28;20101;-81
2023/01/28 15:39:43;;;;;;;34.63;17.17;;;;;;;2.14;100.00;97480.91;5078812;28;20027;-79
2023/01/28 15:42:18;;;;;;;31.77;15.65;;;;;;;2.18;100.00;97484.31;5091010;28;20020;-79
2023/01/28 15:44:44;;;;;;;40.88;20.80;;;;;;;2.04;100.00;97476.81;5058108;28;20541;-82
2023/01/28 15:47:20;;;;;;;43.58;22.55;;;;;;;2.13;100.00;97494.13;5071229;28;20028;-83
2023/01/28 15:49:49;;;;;;;67.45;32.53;;;;;;;2.10;100.00;97492.44;5073006;28;20016;-82
2023/01/28 15:52:15;;;;;;;80.63;37.25;;;;;;;2.08;100.00;97494.28;5054528;28;20059;-83
2023/01/28 15:54:59;;;;;;;111.05;43.78;;;;;;;2.13;100.00;97504.66;5070357;28;20028;-81
2023/01/28 15:57:42;;;;;;;81.28;37.67;;;;;;;2.09;100.00;97498.63;5071759;28;20017;-83
2023/01/28 16:00:08;;;;;;;97.50;40.28;;;;;;;2.02;100.00;97496.22;5055265;28;20041;-84
2023/01/28 16:02:42;;;;;;;135.40;51.00;;;;;;;2.03;100.00;97504.06;5066623;28;20102;-80
2023/01/28 16:05:25;;;;;;;208.00;77.18;;;;;;;2.06;100.00;97521.63;5049315;28;20037;-81
2023/01/28 16:07:50;;;;;;;145.55;55.15;;;;;;;2.12;100.00;97524.06;5043559;28;20032;-82
2023/01/28 16:10:27;;;;;;;169.98;57.83;;;;;;;2.12;100.00;97519.63;5055819;28;20043;-83
2023/01/28 16:12:56;;;;;;;97.68;40.47;;;;;;;2.11;100.00;97530.25;5047704;28;20116;-81
2023/01/28 16:15:21;;;;;;;45.30;21.98;;;;;;;1.97;100.00;97529.78;5047969;28;20029;-82
2023/01/28 16:17:49;;;;;;;43.05;21.00;;;;;;;2.02;100.00;97538.44;5050599;28;20059;-82
2023/01/28 16:20:20;;;;;;;52.25;23.75;;;;;;;2.01;100.00;97540.19;5046928;28;20036;-82
2023/01/28 16:22:45;;;;;;;40.00;19.85;;;;;;;2.05;100.00;97543.59;5042300;28;20514;-83
2023/01/28 16:25:20;;;;;;;41.92;19.52;;;;;;;2.18;100.00;97555.56;5051337;28;20033;-81
2023/01/28 16:27:45;;;;;;;43.83;22.58;;;;;;;2.20;100.00;97559.00;5051473;28;20028;-82
2023/01/28 16:30:11;;;;;;;38.92;17.95;;;;;;;2.20;100.00;97559.00;5054482;28;20031;-83
2023/01/28 16:32:38;;;;;;;48.13;23.15;;;;;;;2.15;100.00;97563.56;5052617;28;20029;-82
2023/01/28 16:35:26;;;;;;;33.70;17.00;;;;;;;2.15;100.00;97576.75;5066385;28;20020;-81
2023/01/28 16:37:54;;;;;;;35.60;17.15;;;;;;;2.07;100.00;97571.66;5043725;28;20519;-81
2023/01/28 16:40:24;;;;;;;29.95;15.95;;;;;;;2.01;100.00;97563.94;5039742;28;20059;-82
2023/01/28 16:42:52;;;;;;;28.83;15.68;;;;;;;1.99;100.00;97575.44;5062470;28;20119;-81
2023/01/28 16:48:29;;;;;;;34.05;17.00;;;;;;;2.05;100.00;97588.44;5106966;28;20028;-86
2023/01/28 16:50:55;;;;;;;42.83;20.27;;;;;;;2.05;100.00;97591.09;5070479;28;20487;-84
2023/01/28 16:53:24;;;;;;;66.95;32.22;;;;;;;2.05;100.00;97593.72;5076719;28;20020;-82
2023/01/28 16:55:50;;;;;;;117.80;53.45;;;;;;;2.05;100.00;97596.38;5071877;28;20365;-83
2023/01/28 16:58:22;;;;;;;138.88;63.38;;;;;;;1.95;100.00;97598.38;5058330;28;20043;-81
2023/01/28 17:00:47;;;;;;;167.57;75.07;;;;;;;1.85;100.00;97593.38;5038888;28;20421;-82
2023/01/28 17:03:13;;;;;;;152.15;66.18;;;;;;;1.80;100.00;97598.81;5016143;28;20029;-84
2023/01/28 17:05:42;;;;;;;159.13;71.88;;;;;;;1.87;100.00;97610.06;5032484;28;20094;-81
2023/01/28 17:08:07;;;;;;;100.63;45.75;;;;;;;1.79;100.00;97593.56;5015926;28;20029;-82
2023/01/28 17:10:33;;;;;;;133.45;59.75;;;;;;;1.87;100.00;97613.56;5026535;28;20689;-82
2023/01/28 17:12:58;;;;;;;131.45;58.90;;;;;;;1.98;100.00;97615.88;5052473;28;20020;-82
2023/01/28 17:15:24;;;;;;;120.93;59.05;;;;;;;2.00;100.00;97619.38;5033657;28;20036;-80
2023/01/28 17:17:52;;;;;;;143.07;63.53;;;;;;;2.04;100.00;97632.41;5047267;28;20110;-82
2023/01/28 17:20:18;;;;;;;169.95;72.00;;;;;;;1.96;100.00;97623.00;5032467;28;20562;-82
2023/01/28 17:22:44;;;;;;;156.43;74.20;;;;;;;1.91;100.00;97619.59;5014474;28;20083;-82
2023/01/28 17:25:10;;;;;;;158.00;70.43;;;;;;;1.93;100.00;97623.06;5027302;28;20127;-81
2023/01/28 17:27:35;;;;;;;170.45;76.30;;;;;;;1.99;100.00;97630.81;5022061;28;20043;-81
2023/01/28 17:30:01;;;;;;;172.27;76.15;;;;;;;2.17;100.00;97635.59;5015538;28;20448;-81
2023/01/28 17:32:32;;;;;;;200.15;81.68;;;;;;;2.06;100.00;97629.75;5015084;28;20025;-82
2023/01/28 17:34:58;;;;;;;143.83;56.37;;;;;;;2.12;100.00;97634.88;5037255;28;20040;-83
2023/01/28 17:37:23;;;;;;;165.05;69.45;;;;;;;2.21;100.00;97639.88;5051748;28;20658;-83
2023/01/28 17:39:49;;;;;;;157.60;67.53;;;;;;;2.13;100.00;97624.25;5052468;28;20120;-83
2023/01/28 17:42:15;;;;;;;167.18;69.00;;;;;;;2.22;100.00;97644.25;5035652;28;20056;-81
2023/01/28 17:44:41;;;;;;;159.60;68.07;;;;;;;2.23;100.00;97642.47;5035486;28;20029;-83
2023/01/28 17:47:07;;;;;;;137.18;62.30;;;;;;;2.25;100.00;97646.78;5025506;28;20377;-84
2023/01/28 17:49:32;;;;;;;120.28;52.67;;;;;;;2.14;100.00;97648.88;5034878;28;20032;-82
2023/01/28 17:52:01;;;;;;;100.07;45.72;;;;;;;2.11;100.00;97638.41;5035173;28;20024;-82
2023/01/28 17:54:26;;;;;;;88.72;42.75;;;;;;;2.19;100.00;97653.09;5051756;28;20484;-83
2023/01/28 17:56:52;;;;;;;94.28;43.35;;;;;;;2.25;100.00;97652.06;5039749;28;20040;-83
2023/01/28 17:59:18;;;;;;;91.93;42.60;;;;;;;2.10;100.00;97639.28;5015207;28;20032;-83
2023/01/28 18:01:43;;;;;;;104.88;45.40;;;;;;;2.12;100.00;97650.69;5039519;28;20044;-83
2023/01/28 18:04:09;;;;;;;91.40;40.60;;;;;;;2.06;100.00;97645.59;5054833;28;20024;-83
2023/01/28 18:06:35;;;;;;;93.38;41.33;;;;;;;2.03;100.00;97649.16;5063689;28;20100;-82
2023/01/28 18:09:02;;;;;;;100.00;43.20;;;;;;;2.10;100.00;97660.41;5042993;28;20027;-83
2023/01/28 18:11:28;;;;;;;101.25;43.75;;;;;;;2.16;100.00;97662.88;5034550;28;20025;-84
2023/01/28 18:13:54;;;;;;;105.80;45.83;;;;;;;2.15;100.00;97662.00;5046104;28;20028;-84
2023/01/28 18:16:23;;;;;;;93.10;42.50;;;;;;;2.10;100.00;97658.63;5054138;28;20089;-84
2023/01/28 18:18:49;;;;;;;91.78;39.45;;;;;;;2.17;100.00;97675.16;5071075;28;20032;-83
2023/01/28 18:21:41;;;;;;;90.68;38.72;;;;;;;2.23;100.00;97679.41;5054526;28;20025;-82
2023/01/28 18:24:07;;;;;;;73.18;32.72;;;;;;;2.22;100.00;97677.66;5020849;28;20507;-83
2023/01/28 18:26:32;;;;;;;70.90;32.65;;;;;;;2.30;100.00;97681.84;5035377;28;20104;-83
2023/01/28 18:28:58;;;;;;;76.65;34.17;;;;;;;2.29;100.00;97680.09;5044543;28;20060;-85
2023/01/28 18:31:24;;;;;;;81.25;35.40;;;;;;;2.24;100.00;97679.38;5054543;28;20020;-83
2023/01/28 18:33:49;;;;;;;83.50;37.00;;;;;;;2.11;100.00;97672.69;5068578;28;20039;-83
2023/01/28 18:36:15;;;;;;;84.90;37.72;;;;;;;2.06;100.00;97677.25;5035101;28;20025;-84
2023/01/28 18:38:41;;;;;;;81.30;35.70;;;;;;;2.08;100.00;97675.41;5034712;28;20056;-83
2023/01/28 18:41:21;;;;;;;93.22;40.33;;;;;;;2.00;100.00;97683.50;5034878;28;20060;-83
2023/01/28 18:43:47;;;;;;;85.38;38.40;;;;;;;2.04;100.00;97684.31;5051511;28;20083;-83
2023/01/28 18:46:16;;;;;;;87.22;36.75;;;;;;;2.08;100.00;97696.53;5034309;28;20037;-83
2023/01/28 18:48:42;;;;;;;73.60;33.47;;;;;;;2.14;100.00;97710.41;5035705;28;20037;-83
2023/01/28 18:51:23;;;;;;;71.00;32.65;;;;;;;2.08;100.00;97701.78;5036546;28;20480;-82
2023/01/28 18:53:55;;;;;;;69.75;31.65;;;;;;;1.80;100.00;97674.38;5053569;28;20040;-83
2023/01/28 18:56:41;;;;;;;67.60;29.25;;;;;;;1.99;100.00;97695.00;5072649;28;20028;-84
2023/01/28 18:59:08;;;;;;;54.15;24.20;;;;;;;1.98;100.00;97713.47;5071447;28;20089;-84
2023/01/28 19:01:34;;;;;;;61.05;26.58;;;;;;;2.03;100.00;97714.25;5054172;28;20056;-84
2023/01/28 19:04:00;;;;;;;58.92;26.30;;;;;;;2.07;100.00;97718.50;5070967;28;20020;-83
2023/01/28 19:06:27;;;;;;;52.38;22.65;;;;;;;2.16;100.00;97723.56;5054666;28;20572;-83
2023/01/28 19:08:55;;;;;;;50.03;24.13;;;;;;;2.21;100.00;97726.97;5053968;28;20057;-83
2023/01/28 19:11:22;;;;;;;48.83;22.80;;;;;;;2.19;100.00;97712.91;5053773;28;20032;-83
2023/01/28 19:13:48;;;;;;;48.10;21.20;;;;;;;2.08;100.00;97710.56;5053544;28;20028;-83
2023/01/28 19:16:13;;;;;;;45.35;21.02;;;;;;;1.95;100.00;97714.44;5053743;28;20032;-83
2023/01/28 19:18:39;;;;;;;46.13;23.02;;;;;;;1.97;100.00;97722.31;5053483;28;20113;-84
2023/01/28 19:21:05;;;;;;;41.67;19.42;;;;;;;1.92;100.00;97727.69;5050613;28;20393;-83
2023/01/28 19:23:31;;;;;;;54.20;23.52;;;;;;;1.89;100.00;97726.91;5033695;28;20364;-82
2023/01/28 19:25:57;;;;;;;49.55;24.73;;;;;;;1.89;100.00;97729.53;5049998;28;20023;-82
2023/01/28 19:28:22;;;;;;;54.83;25.95;;;;;;;2.01;100.00;97731.84;5037019;28;20024;-82
2023/01/28 19:30:48;;;;;;;55.65;25.15;;;;;;;2.02;100.00;97728.31;5053205;28;20024;-83
2023/01/28 19:33:14;;;;;;;52.83;25.27;;;;;;;2.08;100.00;97734.31;5045699;28;20039;-83
2023/01/28 19:35:39;;;;;;;50.28;23.33;;;;;;;2.11;100.00;97728.97;5053555;28;20052;-81
2023/01/28 19:38:05;;;;;;;50.08;23.58;;;;;;;2.20;100.00;97741.03;5042670;28;20039;-82
2023/01/28 19:40:31;;;;;;;48.20;23.63;;;;;;;2.10;100.00;97729.84;5033243;28;20017;-82
2023/01/28 19:42:56;;;;;;;40.45;20.92;;;;;;;2.23;100.00;97745.38;5064972;28;20028;-83
2023/01/28 19:45:22;;;;;;;43.70;21.13;;;;;;;2.26;100.00;97742.66;5033310;28;20070;-83
2023/01/28 19:47:47;;;;;;;41.40;20.45;;;;;;;2.22;100.00;97735.72;5037388;28;20036;-83
2023/01/28 19:50:14;;;;;;;47.78;21.60;;;;;;;2.02;100.00;97734.47;5037084;28;20024;-83
2023/01/28 19:52:39;;;;;;;47.28;22.13;;;;;;;2.06;100.00;97744.03;5054081;28;20024;-83
2023/01/28 19:55:06;;;;;;;40.03;17.83;;;;;;;2.09;100.00;97748.38;5037374;28;20408;-82
2023/01/28 19:57:31;;;;;;;45.60;22.15;;;;;;;2.07;100.00;97747.53;5037032;28;20047;-83
2023/01/28 19:59:57;;;;;;;52.17;26.25;;;;;;;2.04;100.00;97752.88;5038134;28;20111;-82
2023/01/28 20:02:22;;;;;;;61.80;28.15;;;;;;;2.06;100.00;97762.47;5037723;28;20140;-84
2023/01/28 20:04:48;;;;;;;64.55;29.90;;;;;;;2.03;100.00;97762.56;5037785;28;20128;-84
2023/01/28 20:07:13;;;;;;;65.90;31.13;;;;;;;1.97;100.00;97757.44;5038032;28;20040;-83
2023/01/28 20:09:39;;;;;;;63.88;27.40;;;;;;;1.93;100.00;97771.63;5044328;28;20016;-83
2023/01/28 20:12:05;;;;;;;87.40;36.15;;;;;;;1.97;100.00;97767.16;5056737;28;20536;-83
2023/01/28 20:14:30;;;;;;;60.63;26.23;;;;;;;1.94;100.00;97761.94;5062611;28;20110;-82
2023/01/28 20:16:56;;;;;;;65.05;29.52;;;;;;;1.93;100.00;97757.56;5073638;28;20056;-83
2023/01/28 20:19:21;;;;;;;70.50;30.73;;;;;;;1.96;100.00;97760.13;5036597;28;20033;-83
2023/01/28 20:21:50;;;;;;;58.90;28.08;;;;;;;2.00;100.00;97767.91;5036673;28;20028;-84
2023/01/28 20:24:15;;;;;;;73.75;37.20;;;;;;;1.89;100.00;97764.69;5053206;28;20036;-83
2023/01/28 20:26:42;;;;;;;96.93;42.47;;;;;;;1.89;100.00;97767.31;5041093;28;20021;-83
2023/01/28 20:29:12;;;;;;;92.20;41.10;;;;;;;1.94;100.00;97772.50;5056084;28;20377;-84
2023/01/28 20:31:38;;;;;;;85.60;40.53;;;;;;;1.97;100.00;97778.53;5036177;28;20094;-83
2023/01/28 20:34:04;;;;;;;78.60;37.20;;;;;;;2.02;100.00;97791.63;5052831;28;20028;-84
2023/01/28 20:36:29;;;;;;;74.18;33.92;;;;;;;2.10;100.00;97800.22;5071981;28;20028;-82
2023/01/28 20:38:55;;;;;;;48.17;24.83;;;;;;;1.97;100.00;97783.81;5041740;28;20432;-83
2023/01/28 20:41:22;;;;;;;47.45;23.42;;;;;;;1.90;100.00;97784.03;5036080;28;20115;-83
2023/01/28 20:43:49;;;;;;;64.10;30.27;;;;;;;1.86;100.00;97779.72;5054083;28;20206;-83
2023/01/28 20:46:35;;;;;;;54.95;26.52;;;;;;;1.93;100.00;97797.13;5035933;28;20484;-83
2023/01/28 20:49:01;;;;;;;52.88;25.45;;;;;;;1.96;100.00;97802.31;5060748;28;20048;-83